Time;durP1;ratioP1;P1;durP2;ratioP2;P2;SDS_P1;SDS_P2;PMS_P1;PMS_P2;Temp;Humidity;BMP_temperature;BMP_pressure;BME280_temperature;BME280_humidity;BME280_pressure;Samples;Min_cycle;Max_cycle;Signal;HPM_P1;HPM_P2
2021/11/21 00:01:39;;;;;;;;;83.00;63.67;;;;;4.22;100.00;99745.09;6280520;20;3638811;-45
2021/11/21 00:04:09;;;;;;;;;82.33;62.00;;;;;3.77;100.00;99751.91;6315139;20;3658594;-48
2021/11/21 00:06:38;;;;;;;;;86.00;62.33;;;;;3.48;100.00;99748.41;6280889;20;3645081;-46
2021/11/21 00:09:08;;;;;;;;;84.00;61.67;;;;;3.49;100.00;99746.63;6314210;20;3660662;-47
2021/11/21 00:11:38;;;;;;;;;81.00;60.67;;;;;3.59;100.00;99742.75;6281145;20;3637710;-45
2021/11/21 00:14:07;;;;;;;;;84.00;64.67;;;;;3.38;100.00;99743.44;6315455;20;3644352;-46
2021/11/21 00:16:38;;;;;;;;;84.33;60.33;;;;;3.47;100.00;99737.81;6315411;20;3646112;-47
2021/11/21 00:19:08;;;;;;;;;81.67;61.33;;;;;3.53;100.00;99737.66;6279744;20;3643981;-47
2021/11/21 00:21:37;;;;;;;;;80.33;62.33;;;;;3.42;100.00;99734.44;6312585;20;3628407;-46
2021/11/21 00:24:07;;;;;;;;;88.33;65.33;;;;;3.05;100.00;99725.88;6311533;20;3651276;-46
2021/11/21 00:26:37;;;;;;;;;87.00;61.67;;;;;2.75;100.00;99726.75;6315478;20;3663781;-47
2021/11/21 00:29:07;;;;;;;;;82.00;61.33;;;;;2.22;100.00;99732.66;6286079;20;3650226;-47
2021/11/21 00:31:35;;;;;;;;;74.00;56.50;;;;;1.51;100.00;99726.50;6286431;20;2868996;-48
2021/11/21 00:34:05;;;;;;;;;60.00;51.00;;;;;1.08;100.00;99718.72;6286527;20;2850258;-46
2021/11/21 00:36:34;;;;;;;;;68.00;53.00;;;;;1.15;100.00;99722.94;6320795;20;2888132;-46
2021/11/21 00:39:05;;;;;;;;;81.67;61.00;;;;;0.92;100.00;99733.13;6283644;20;3640995;-47
2021/11/21 00:41:34;;;;;;;;;85.00;63.00;;;;;1.00;100.00;99726.81;6317795;20;3653347;-46
2021/11/21 00:44:05;;;;;;;;;94.00;72.33;;;;;0.87;100.00;99712.13;6319755;20;3633681;-45
2021/11/21 00:46:35;;;;;;;;;88.33;66.00;;;;;0.81;100.00;99720.16;6319585;20;3653343;-49
2021/11/21 00:49:11;;;;;;;;;87.00;66.67;;;;;0.96;100.00;99714.53;6319830;20;3638772;-48
2021/11/21 00:51:43;;;;;;;;;91.00;71.00;;;;;0.83;100.00;99705.16;6320657;20;3636798;-45
2021/11/21 00:56:53;;;;;;;;;92.67;67.33;;;;;1.01;100.00;99714.44;6318898;20;3641908;-46
2021/11/21 00:59:24;;;;;;;;;81.33;62.00;;;;;1.08;100.00;99716.94;6319278;20;3644617;-49
2021/11/21 01:01:53;;;;;;;;;90.33;64.67;;;;;1.17;100.00;99701.75;6318823;20;3658560;-46
2021/11/21 01:04:24;;;;;;;;;84.00;59.33;;;;;1.49;100.00;99701.84;6286445;20;3648134;-46
2021/11/21 01:06:53;;;;;;;;;78.00;58.33;;;;;1.29;100.00;99705.00;6319250;20;2882616;-47
2021/11/21 01:09:24;;;;;;;;;78.00;59.50;;;;;1.07;100.00;99701.94;6317357;20;2898257;-48
2021/11/21 01:11:56;;;;;;;;;81.33;61.67;;;;;0.99;100.00;99697.75;6287723;20;3631484;-48
2021/11/21 01:14:29;;;;;;;;;84.00;61.67;;;;;1.04;100.00;99694.09;6319207;20;3652316;-49
2021/11/21 01:16:59;;;;;;;;;75.00;58.00;;;;;1.08;100.00;99690.50;6318593;20;2889938;-47
2021/11/21 01:19:28;;;;;;;;;73.50;58.50;;;;;0.91;100.00;99679.41;6319116;20;2863771;-45
2021/11/21 01:21:58;;;;;;;;;85.00;63.00;;;;;0.57;100.00;99684.56;6288836;20;3651244;-47
2021/11/21 01:24:28;;;;;;;;;81.67;64.00;;;;;0.71;100.00;99685.16;6318398;20;2883660;-49
2021/11/21 01:26:58;;;;;;;;;76.00;58.67;;;;;0.39;100.00;99680.53;6317033;20;2873144;-49
2021/11/21 01:29:28;;;;;;;;;76.00;60.33;;;;;0.47;100.00;99680.38;6318009;20;2884628;-48
2021/11/21 01:32:01;;;;;;;;;80.33;59.00;;;;;0.46;100.00;99682.16;6315065;20;3636706;-45
2021/11/21 01:34:31;;;;;;;;;82.33;64.00;;;;;0.83;100.00;99679.59;6319769;20;2883739;-46
2021/11/21 01:37:00;;;;;;;;;74.00;60.00;;;;;0.55;100.00;99671.38;6317495;20;2873574;-47
2021/11/21 01:39:30;;;;;;;;;80.33;62.33;;;;;0.49;100.00;99668.88;6285276;20;2875364;-45
2021/11/21 01:42:00;;;;;;;;;87.67;66.00;;;;;0.60;100.00;99673.91;6316884;20;3657534;-46
2021/11/21 01:44:30;;;;;;;;;87.33;66.00;;;;;0.49;100.00;99668.88;6315543;20;2890915;-45
2021/11/21 01:47:00;;;;;;;;;85.67;64.33;;;;;0.36;100.00;99668.25;6317138;20;3653359;-46
2021/11/21 01:49:29;;;;;;;;;83.33;62.67;;;;;0.41;100.00;99662.88;6316386;20;2885789;-45
2021/11/21 01:51:59;;;;;;;;;84.33;64.00;;;;;1.21;100.00;99655.81;6317640;20;3641920;-45
2021/11/21 01:54:30;;;;;;;;;81.67;62.33;;;;;0.57;100.00;99650.22;6318160;20;2875326;-47
2021/11/21 01:57:00;;;;;;;;;87.00;64.67;;;;;0.33;100.00;99651.59;6317238;20;3642947;-46
2021/11/21 01:59:31;;;;;;;;;98.67;75.33;;;;;0.04;100.00;99647.78;6316208;20;3654611;-46
2021/11/21 02:02:01;;;;;;;;;120.33;98.67;;;;;0.31;100.00;99650.75;6316525;20;3700261;-47
2021/11/21 02:04:31;;;;;;;;;86.33;62.00;;;;;0.10;100.00;99650.28;6286554;20;3644027;-48
2021/11/21 02:07:01;;;;;;;;;88.67;65.33;;;;;-0.06;100.00;99654.13;6317506;20;3648191;-47
2021/11/21 02:09:31;;;;;;;;;111.33;86.00;;;;;0.10;100.00;99639.72;6316992;20;3698192;-46
2021/11/21 02:12:01;;;;;;;;;131.33;103.33;;;;;-0.03;100.00;99644.41;6284321;20;3717946;-46
2021/11/21 02:14:32;;;;;;;;;110.50;84.75;;;;;0.15;100.00;99640.50;6285575;20;3698150;-47
2021/11/21 02:17:02;;;;;;;;;102.00;74.00;;;;;0.09;100.00;99642.41;6316783;20;3675246;-47
2021/11/21 02:19:32;;;;;;;;;85.33;64.00;;;;;0.12;100.00;99639.72;6283908;20;2892035;-46
2021/11/21 02:22:02;;;;;;;;;88.00;64.67;;;;;0.46;100.00;99637.25;6315528;20;3641931;-48
2021/11/21 02:24:33;;;;;;;;;80.33;63.33;;;;;0.42;100.00;99632.91;6317539;20;3625235;-45
2021/11/21 02:27:03;;;;;;;;;82.00;64.33;;;;;0.29;100.00;99629.69;6317205;20;3623182;-46
2021/11/21 02:29:32;;;;;;;;;82.00;62.00;;;;;0.37;100.00;99624.22;6316934;20;2889875;-47
2021/11/21 02:32:02;;;;;;;;;79.00;60.33;;;;;0.56;100.00;99624.72;6284942;20;2892033;-45
2021/11/21 02:34:32;;;;;;;;;76.67;58.33;;;;;0.37;100.00;99618.94;6315049;20;2885744;-45
2021/11/21 02:37:06;;;;;;;;;82.67;60.00;;;;;0.38;100.00;99625.97;6316915;20;2882637;-44
2021/11/21 02:39:38;;;;;;;;;75.00;60.00;;;;;0.27;100.00;99634.13;6315804;20;2863105;-46
2021/11/21 02:42:09;;;;;;;;;84.00;63.00;;;;;0.10;100.00;99618.59;6285194;20;2889333;-47
2021/11/21 02:44:38;;;;;;;;;82.67;63.33;;;;;0.53;100.00;99623.00;6314389;20;3619114;-47
2021/11/21 02:47:08;;;;;;;;;80.67;61.00;;;;;0.14;100.00;99620.31;6317222;20;3637817;-46
2021/11/21 02:49:39;;;;;;;;;79.00;59.50;;;;;0.26;100.00;99620.94;6311833;20;2885807;-48
2021/11/21 02:52:09;;;;;;;;;83.67;60.00;;;;;0.22;100.00;99607.81;6285188;20;3657606;-47
2021/11/21 02:54:52;;;;;;;;;84.33;61.00;;;;;0.11;100.00;99609.81;6317365;20;3646036;-46
2021/11/21 02:57:24;;;;;;;;;79.33;60.33;;;;;0.09;100.00;99603.69;6316067;20;2891076;-48
2021/11/21 02:59:54;;;;;;;;;84.67;64.67;;;;;0.79;100.00;99605.69;6314551;20;2875266;-46
2021/11/21 03:02:24;;;;;;;;;81.33;62.33;;;;;0.70;100.00;99595.34;6316490;20;3626255;-45
2021/11/21 03:04:56;;;;;;;;;83.00;62.33;;;;;0.32;100.00;99597.94;6317014;20;3636690;-45
2021/11/21 03:07:25;;;;;;;;;80.33;61.33;;;;;0.22;100.00;99599.88;6315429;20;3639935;-46
2021/11/21 03:09:55;;;;;;;;;76.33;60.33;;;;;0.17;100.00;99596.47;6312847;20;2875380;-44
2021/11/21 03:12:25;;;;;;;;;77.33;59.00;;;;;0.43;100.00;99587.13;6316720;20;3635631;-48
2021/11/21 03:14:55;;;;;;;;;81.67;62.00;;;;;0.43;100.00;99598.56;6317569;20;3641886;-46
2021/11/21 03:17:24;;;;;;;;;89.67;67.00;;;;;0.32;100.00;99586.50;6316386;20;3650192;-46
2021/11/21 03:19:54;;;;;;;;;87.67;65.33;;;;;0.29;100.00;99589.19;6313709;20;3653342;-47
2021/11/21 03:22:23;;;;;;;;;87.33;64.33;;;;;-0.12;100.00;99588.28;6315432;20;3652291;-46
2021/11/21 03:24:53;;;;;;;;;84.67;65.00;;;;;-0.42;100.00;99582.72;6316511;20;2888854;-47
2021/11/21 03:27:23;;;;;;;;;90.00;68.00;;;;;-0.54;100.00;99580.28;6314447;20;2758624;-46
2021/11/21 03:29:53;;;;;;;;;83.00;61.33;;;;;-0.23;100.00;99573.53;6280181;20;2880448;-48
2021/11/21 03:32:23;;;;;;;;;84.67;63.00;;;;;-0.45;100.00;99578.38;6315480;20;3655469;-45
2021/11/21 03:34:52;;;;;;;;;88.00;65.00;;;;;-0.19;100.00;99570.81;6316722;20;3640877;-48
2021/11/21 03:37:22;;;;;;;;;86.33;65.00;;;;;-0.27;100.00;99570.97;6314977;20;3646091;-45
2021/11/21 03:39:51;;;;;;;;;76.00;62.00;;;;;0.17;100.00;99570.06;6314221;20;2869120;-48
2021/11/21 03:42:21;;;;;;;;;90.33;68.33;;;;;-0.30;100.00;99568.41;6284425;20;3650287;-48
2021/11/21 03:44:50;;;;;;;;;90.33;64.00;;;;;-0.39;100.00;99558.03;6315450;20;3658604;-51
2021/11/21 03:47:20;;;;;;;;;91.33;67.33;;;;;-0.32;100.00;99557.88;6315416;20;3663863;-45
2021/11/21 03:49:50;;;;;;;;;97.00;68.00;;;;;-0.50;100.00;99555.59;6280482;20;3655494;-44
2021/11/21 03:52:19;;;;;;;;;93.33;68.33;;;;;-0.17;100.00;99550.56;6314287;20;3646075;-47
2021/11/21 03:54:48;;;;;;;;;89.50;69.50;;;;;-0.45;100.00;99556.38;6313353;20;2873207;-46
2021/11/21 03:57:18;;;;;;;;;82.33;62.33;;;;;-1.11;100.00;99542.63;6283336;20;3637721;-47
2021/11/21 03:59:48;;;;;;;;;87.00;65.67;;;;;-1.00;100.00;99544.19;6313975;20;3634613;-46
2021/11/21 04:02:17;;;;;;;;;80.00;63.33;;;;;-0.87;100.00;99535.16;6319873;20;3623161;-50
2021/11/21 04:04:48;;;;;;;;;91.67;65.33;;;;;-1.28;100.00;99536.75;6321248;20;3649247;-49
2021/11/21 04:07:17;;;;;;;;;88.67;63.00;;;;;-1.03;100.00;99538.97;6320252;20;3655411;-52
2021/11/21 04:09:47;;;;;;;;;90.33;64.00;;;;;-0.74;100.00;99536.72;6319565;20;3675233;-50
2021/11/21 04:12:17;;;;;;;;;93.67;64.00;;;;;-0.99;100.00;99524.84;6321246;20;3657132;-47
2021/11/21 04:14:46;;;;;;;;;94.00;70.67;;;;;-0.88;100.00;99529.03;6286911;20;3650394;-46
2021/11/21 04:17:16;;;;;;;;;99.67;71.67;;;;;-0.79;100.00;99535.94;6319286;20;3666887;-48
2021/11/21 04:19:46;;;;;;;;;89.33;65.00;;;;;-0.79;100.00;99528.00;6317659;20;3659647;-46
2021/11/21 04:22:16;;;;;;;;;97.67;68.00;;;;;-0.65;100.00;99534.81;6319367;20;3651248;-49
2021/11/21 04:24:46;;;;;;;;;101.00;69.33;;;;;-0.75;100.00;99529.69;6319673;20;3671104;-49
2021/11/21 04:27:16;;;;;;;;;92.00;69.67;;;;;-1.27;100.00;99527.06;6319215;20;3644002;-48
2021/11/21 04:29:46;;;;;;;;;104.67;73.00;;;;;-1.38;100.00;99528.13;6317164;20;3680415;-50
2021/11/21 04:32:15;;;;;;;;;106.00;82.33;;;;;-1.09;100.00;99528.53;6290562;20;3691003;-46
2021/11/21 04:34:45;;;;;;;;;126.33;92.67;;;;;-1.28;100.00;99523.56;6286168;20;3700238;-48
2021/11/21 04:37:15;;;;;;;;;119.00;81.33;;;;;-0.92;100.00;99527.38;6286655;20;3696253;-47
2021/11/21 04:39:45;;;;;;;;;107.33;81.00;;;;;-0.97;100.00;99512.53;6283967;20;3689883;-48
2021/11/21 04:42:15;;;;;;;;;99.00;70.50;;;;;-1.01;100.00;99514.34;6286452;20;3543958;-51
2021/11/21 04:44:45;;;;;;;;;101.67;69.33;;;;;-1.00;100.00;99513.44;6318111;20;3656463;-49
2021/11/21 04:47:15;;;;;;;;;89.00;67.33;;;;;-1.00;100.00;99507.28;6319240;20;2891015;-49
2021/11/21 04:49:45;;;;;;;;;91.67;68.00;;;;;-0.83;100.00;99505.22;6317199;20;3639832;-52
2021/11/21 04:52:14;;;;;;;;;93.33;66.33;;;;;-0.65;100.00;99508.44;6320630;20;3663913;-50
2021/11/21 04:54:44;;;;;;;;;92.00;65.00;;;;;-0.95;100.00;99503.72;6318348;20;3664229;-47
2021/11/21 04:57:15;;;;;;;;;84.67;66.00;;;;;-0.58;100.00;99500.38;6317183;20;3646046;-47
2021/11/21 04:59:45;;;;;;;;;104.00;70.67;;;;;-0.72;100.00;99508.53;6317790;20;3682527;-46
2021/11/21 05:02:15;;;;;;;;;109.33;86.67;;;;;-0.77;100.00;99507.75;6320686;20;3678583;-49
2021/11/21 05:04:45;;;;;;;;;121.33;99.33;;;;;-0.73;100.00;99500.66;6288436;20;3698248;-48
2021/11/21 05:07:15;;;;;;;;;140.25;114.00;;;;;-0.68;100.00;99496.19;6287361;20;3722127;-47
2021/11/21 05:09:45;;;;;;;;;112.33;85.67;;;;;-0.37;100.00;99491.19;6283986;20;3684657;-52
2021/11/21 05:12:15;;;;;;;;;127.00;97.00;;;;;-0.18;100.00;99493.44;6285132;20;3571093;-48
2021/11/21 05:14:45;;;;;;;;;117.67;91.33;;;;;0.24;100.00;99488.09;6320167;20;3695035;-49
2021/11/21 05:17:15;;;;;;;;;109.33;86.33;;;;;-0.26;100.00;99485.69;6286286;20;3696139;-51
2021/11/21 05:19:44;;;;;;;;;101.00;72.00;;;;;-0.11;100.00;99489.75;6286559;20;3692941;-47
2021/11/21 05:22:14;;;;;;;;;110.67;86.33;;;;;-0.08;100.00;99481.75;6285731;20;3696164;-49
2021/11/21 05:24:44;;;;;;;;;128.67;87.67;;;;;0.13;100.00;99483.94;6285379;20;3695083;-49
2021/11/21 05:27:14;;;;;;;;;116.00;94.00;;;;;-0.22;100.00;99480.28;6284592;20;3693026;-47
2021/11/21 05:29:43;;;;;;;;;107.67;79.00;;;;;-0.04;100.00;99486.94;6285300;20;3685650;-49
2021/11/21 05:32:13;;;;;;;;;110.67;80.33;;;;;-0.13;100.00;99480.97;6286647;20;3697235;-49
2021/11/21 05:34:43;;;;;;;;;104.00;78.67;;;;;-0.27;100.00;99474.22;6286936;20;3673209;-50
2021/11/21 05:37:13;;;;;;;;;99.67;71.00;;;;;-0.12;100.00;99483.59;6281285;20;3668997;-48
2021/11/21 05:39:43;;;;;;;;;103.67;77.33;;;;;-0.56;100.00;99473.97;6313193;20;3674346;-49
2021/11/21 05:42:13;;;;;;;;;108.00;80.33;;;;;-0.74;100.00;99469.91;6286214;20;3686727;-49
2021/11/21 05:44:42;;;;;;;;;104.67;75.00;;;;;-0.79;100.00;99475.31;6285648;20;3682558;-47
2021/11/21 05:47:12;;;;;;;;;95.67;67.67;;;;;-0.16;100.00;99466.09;6286273;20;3643048;-49
2021/11/21 05:49:42;;;;;;;;;75.00;54.67;;;;;-0.13;100.00;99470.44;6315736;20;2894250;-50
2021/11/21 05:52:11;;;;;;;;;88.33;69.67;;;;;-0.34;100.00;99467.38;6315348;20;2890003;-48
2021/11/21 05:54:43;;;;;;;;;88.67;67.33;;;;;-0.52;100.00;99463.34;6317262;20;3650341;-49
2021/11/21 05:57:12;;;;;;;;;93.67;69.67;;;;;-0.72;100.00;99461.09;6317951;20;3649594;-47
2021/11/21 05:59:42;;;;;;;;;87.67;66.33;;;;;-0.58;100.00;99468.75;6315936;20;2895076;-51
2021/11/21 06:02:12;;;;;;;;;96.33;70.67;;;;;-1.17;100.00;99457.53;6317013;20;3648301;-52
2021/11/21 06:04:42;;;;;;;;;98.00;70.33;;;;;-1.08;100.00;99462.63;6317062;20;3662752;-49
2021/11/21 06:07:11;;;;;;;;;89.67;67.00;;;;;-1.42;100.00;99462.34;6285428;20;3630449;-50
2021/11/21 06:09:41;;;;;;;;;93.67;66.00;;;;;-1.37;100.00;99471.03;6315722;20;3664943;-49
2021/11/21 06:12:11;;;;;;;;;96.67;69.00;;;;;-1.37;100.00;99463.16;6318606;20;3654455;-52
2021/11/21 06:14:41;;;;;;;;;83.00;61.33;;;;;-1.49;100.00;99471.28;6318820;20;3647116;-51
2021/11/21 06:17:12;;;;;;;;;97.00;68.33;;;;;-1.26;100.00;99479.66;6317637;20;3652546;-49
2021/11/21 06:19:44;;;;;;;;;95.33;68.33;;;;;-0.81;100.00;99479.72;6316428;20;3648218;-50
2021/11/21 06:22:14;;;;;;;;;85.50;63.00;;;;;-0.70;100.00;99477.75;6316499;20;3522262;-52
2021/11/21 06:24:45;;;;;;;;;86.67;66.00;;;;;-0.45;100.00;99477.25;6316189;20;3650240;-47
2021/11/21 06:27:15;;;;;;;;;92.67;69.67;;;;;-0.58;100.00;99479.28;6315334;20;3656452;-47
2021/11/21 06:29:45;;;;;;;;;97.33;71.33;;;;;-0.49;100.00;99483.50;6314323;20;3657581;-48
2021/11/21 06:32:15;;;;;;;;;101.00;71.00;;;;;-0.76;100.00;99480.50;6283763;20;3682582;-51
2021/11/21 06:34:45;;;;;;;;;109.00;85.33;;;;;-0.83;100.00;99489.41;6280722;20;3685760;-52
2021/11/21 06:37:15;;;;;;;;;102.67;74.33;;;;;-0.77;100.00;99478.75;6285677;20;3674155;-50
2021/11/21 06:39:45;;;;;;;;;95.33;71.00;;;;;-0.65;100.00;99482.94;6316012;20;3668969;-49
2021/11/21 06:42:15;;;;;;;;;101.00;73.00;;;;;-0.41;100.00;99481.56;6281354;20;3676274;-53
2021/11/21 06:44:44;;;;;;;;;87.67;67.00;;;;;-0.80;100.00;99473.53;6283822;20;3656482;-54
2021/11/21 06:47:15;;;;;;;;;92.67;69.00;;;;;-0.68;100.00;99468.03;6316310;20;3663900;-51
2021/11/21 06:49:46;;;;;;;;;89.67;69.00;;;;;-0.56;100.00;99468.69;6314546;20;3648143;-51
2021/11/21 06:52:18;;;;;;;;;83.33;66.00;;;;;-0.70;100.00;99480.38;6317560;20;2882641;-51
2021/11/21 06:54:47;;;;;;;;;81.33;61.67;;;;;-0.53;100.00;99474.75;6317373;20;3639913;-51
2021/11/21 06:57:19;;;;;;;;;80.67;62.67;;;;;-0.36;100.00;99479.72;6315354;20;3637731;-51
2021/11/21 06:59:48;;;;;;;;;82.67;64.33;;;;;-0.27;100.00;99470.72;6313394;20;3627289;-52
2021/11/21 07:02:18;;;;;;;;;83.67;63.67;;;;;-0.08;100.00;99465.91;6316058;20;2878406;-49
2021/11/21 07:04:49;;;;;;;;;79.33;61.33;;;;;-0.07;100.00;99470.31;6315093;20;2883004;-51
2021/11/21 07:07:21;;;;;;;;;90.33;67.33;;;;;0.07;100.00;99473.50;6315112;20;3657509;-50
2021/11/21 07:09:51;;;;;;;;;95.33;71.33;;;;;0.25;100.00;99464.31;6315663;20;3656619;-50
2021/11/21 07:12:20;;;;;;;;;95.00;71.00;;;;;-0.01;100.00;99460.47;6282963;20;3658532;-49
2021/11/21 07:15:14;;;;;;;;;98.33;66.00;;;;;0.04;100.00;99464.81;6314217;20;3661652;-51
2021/11/21 07:17:51;;;;;;;;;93.00;68.67;;;;;0.56;100.00;99469.72;6315830;20;3651336;-53
2021/11/21 07:20:21;;;;;;;;;94.67;70.33;;;;;0.69;100.00;99483.50;6314910;20;3670015;-54
2021/11/21 07:22:53;;;;;;;;;104.00;81.33;;;;;0.25;100.00;99476.66;6282659;20;3691873;-52
2021/11/21 07:25:25;;;;;;;;;82.67;64.67;;;;;0.69;100.00;99472.06;6283724;20;3622118;-53
2021/11/21 07:27:55;;;;;;;;;94.00;67.00;;;;;0.50;100.00;99463.72;6313092;20;3650249;-54
2021/11/21 07:30:25;;;;;;;;;86.00;65.33;;;;;0.06;100.00;99457.72;6315991;20;3636705;-54
2021/11/21 07:32:54;;;;;;;;;76.00;63.50;;;;;0.73;100.00;99458.72;6316606;20;2877403;-54
2021/11/21 07:35:24;;;;;;;;;90.67;67.33;;;;;0.25;100.00;99469.59;6284218;20;3653389;-52
2021/11/21 07:37:54;;;;;;;;;87.67;64.33;;;;;0.31;100.00;99461.50;6315651;20;3653421;-51
2021/11/21 07:40:24;;;;;;;;;94.00;67.00;;;;;0.59;100.00;99456.44;6316739;20;3647120;-52
2021/11/21 07:42:55;;;;;;;;;81.00;62.33;;;;;0.63;100.00;99463.41;6315070;20;2894065;-54
2021/11/21 07:45:25;;;;;;;;;86.67;62.67;;;;;0.97;100.00;99451.94;6313933;20;3652338;-51
2021/11/21 07:47:55;;;;;;;;;78.67;61.00;;;;;0.78;100.00;99453.34;6315285;20;3635734;-49
2021/11/21 07:50:25;;;;;;;;;83.33;60.00;;;;;1.25;100.00;99456.50;6315131;20;3655475;-50
2021/11/21 07:52:54;;;;;;;;;71.50;54.00;;;;;1.25;100.00;99451.22;6315326;20;2858597;-48
2021/11/21 07:55:23;;;;;;;;;82.00;59.33;;;;;1.02;100.00;99459.75;6284339;20;3650259;-50
2021/11/21 07:57:53;;;;;;;;;86.00;60.00;;;;;1.10;100.00;99463.91;6314131;20;3661195;-49
2021/11/21 08:00:23;;;;;;;;;107.00;74.00;;;;;1.36;100.00;99451.78;6316268;20;3684657;-51
2021/11/21 08:02:52;;;;;;;;;109.67;93.33;;;;;1.26;100.00;99445.91;6281283;20;3678373;-49
2021/11/21 08:05:23;;;;;;;;;92.00;67.00;;;;;1.27;100.00;99454.69;6277213;20;3642321;-49
2021/11/21 08:07:52;;;;;;;;;75.67;57.33;;;;;1.52;100.00;99454.84;6315112;20;3623295;-48
2021/11/21 08:10:22;;;;;;;;;123.00;99.00;;;;;1.42;100.00;99450.72;6310505;20;3701293;-49
2021/11/21 08:12:53;;;;;;;;;111.25;93.25;;;;;1.73;100.00;99453.38;6282927;20;3695097;-53
2021/11/21 08:15:23;;;;;;;;;91.67;63.67;;;;;1.58;100.00;99444.13;6281160;20;3660688;-52
2021/11/21 08:17:53;;;;;;;;;85.33;63.00;;;;;1.49;100.00;99450.53;6313579;20;3656518;-52
2021/11/21 08:20:23;;;;;;;;;77.00;58.33;;;;;0.76;100.00;99447.22;6311793;20;2882678;-51
2021/11/21 08:22:54;;;;;;;;;96.67;66.33;;;;;0.95;100.00;99448.50;6313986;20;3655483;-48
2021/11/21 08:25:23;;;;;;;;;81.33;57.33;;;;;1.74;100.00;99450.69;6280016;20;3649600;-52
2021/11/21 08:27:53;;;;;;;;;124.67;105.67;;;;;1.58;100.00;99448.50;6311437;20;3703512;-52
2021/11/21 08:30:24;;;;;;;;;84.00;60.33;;;;;0.86;100.00;99444.28;6278742;20;3658572;-51
2021/11/21 08:32:54;;;;;;;;;80.67;59.33;;;;;1.13;100.00;99447.09;6281412;20;3647119;-51
2021/11/21 08:35:23;;;;;;;;;81.33;58.67;;;;;1.75;100.00;99454.19;6315496;20;3656484;-51
2021/11/21 08:37:53;;;;;;;;;77.67;58.33;;;;;1.20;100.00;99458.41;6315382;20;3634836;-49
2021/11/21 08:40:23;;;;;;;;;76.67;55.67;;;;;1.54;100.00;99458.34;6315238;20;2879439;-50
2021/11/21 08:42:52;;;;;;;;;81.33;64.67;;;;;2.23;100.00;99448.31;6313844;20;2877442;-53
2021/11/21 08:45:23;;;;;;;;;84.00;59.00;;;;;2.05;100.00;99443.59;6314629;20;3666989;-51
2021/11/21 08:47:53;;;;;;;;;76.33;55.33;;;;;2.32;100.00;99436.59;6317177;20;3636702;-52
2021/11/21 08:50:23;;;;;;;;;80.00;54.67;;;;;2.27;100.00;99439.38;6319491;20;3641901;-49
2021/11/21 08:52:53;;;;;;;;;92.67;63.33;;;;;2.32;100.00;99439.22;6319061;20;3653389;-49
2021/11/21 08:55:23;;;;;;;;;89.00;65.67;;;;;2.22;100.00;99445.72;6320203;20;3658595;-52
2021/11/21 08:57:53;;;;;;;;;93.00;67.67;;;;;2.24;100.00;99434.16;6284793;20;3646108;-53
2021/11/21 09:00:23;;;;;;;;;88.67;62.67;;;;;2.18;100.00;99431.69;6318022;20;3648176;-51
2021/11/21 09:02:53;;;;;;;;;75.00;58.33;;;;;2.39;100.00;99441.59;6319560;20;3633693;-53
2021/11/21 09:05:24;;;;;;;;;87.67;66.67;;;;;2.63;100.00;99429.38;6318074;20;2908693;-49
2021/11/21 09:08:15;;;;;;;;;108.75;85.75;;;;;2.52;100.00;99428.81;6319454;20;3702929;-49
2021/11/21 09:10:45;;;;;;;;;103.00;85.67;;;;;2.57;100.00;99428.69;6317707;20;3685753;-52
2021/11/21 09:13:15;;;;;;;;;98.00;77.33;;;;;3.06;100.00;99425.22;6284515;20;3659030;-53
2021/11/21 09:15:45;;;;;;;;;83.00;62.00;;;;;2.82;100.00;99424.28;6284921;20;3644475;-52
2021/11/21 09:18:16;;;;;;;;;85.67;67.00;;;;;2.92;100.00;99427.47;6316936;20;3642950;-53
2021/11/21 09:20:45;;;;;;;;;84.67;63.33;;;;;2.78;100.00;99420.00;6317887;20;3652368;-52
2021/11/21 09:23:18;;;;;;;;;83.00;57.00;;;;;2.71;100.00;99418.47;6319838;20;3657530;-52
2021/11/21 09:25:48;;;;;;;;;81.67;58.00;;;;;2.58;100.00;99415.41;6317885;20;3635641;-52
2021/11/21 09:28:19;;;;;;;;;113.33;93.67;;;;;2.63;100.00;99415.22;6315603;20;3678337;-51
2021/11/21 09:30:49;;;;;;;;;102.00;77.67;;;;;2.82;100.00;99410.19;6284616;20;3693980;-50
2021/11/21 09:33:19;;;;;;;;;103.67;76.67;;;;;2.94;100.00;99398.28;6281979;20;3686658;-50
2021/11/21 09:35:49;;;;;;;;;83.00;61.00;;;;;3.19;100.00;99404.44;6287682;20;3658649;-52
2021/11/21 09:38:20;;;;;;;;;169.00;146.50;;;;;3.18;100.00;99401.84;6310897;20;1964944;-49
2021/11/21 09:40:50;;;;;;;;;72.67;52.67;;;;;3.41;100.00;99396.56;6286547;20;3635680;-50
2021/11/21 09:43:19;;;;;;;;;63.50;47.50;;;;;3.22;100.00;99396.38;6318326;20;2861728;-54
2021/11/21 09:45:50;;;;;;;;;75.67;55.33;;;;;3.25;100.00;99388.28;6284645;20;3652290;-51
2021/11/21 09:48:20;;;;;;;;;81.00;58.67;;;;;3.15;100.00;99386.88;6316916;20;3656481;-52
2021/11/21 09:50:49;;;;;;;;;80.33;56.67;;;;;2.93;100.00;99383.28;6284757;20;2883043;-51
2021/11/21 09:53:19;;;;;;;;;83.33;56.33;;;;;2.85;100.00;99372.94;6316769;20;3655515;-49
2021/11/21 09:55:49;;;;;;;;;80.67;59.00;;;;;3.32;100.00;99372.13;6283207;20;3641884;-50
2021/11/21 09:58:19;;;;;;;;;86.67;64.33;;;;;3.40;100.00;99360.34;6314264;20;3647110;-51
2021/11/21 10:00:49;;;;;;;;;74.00;57.00;;;;;3.39;100.00;99363.03;6318316;20;3630427;-53
2021/11/21 10:03:19;;;;;;;;;97.33;75.33;;;;;3.60;100.00;99359.56;6316940;20;3666958;-54
2021/11/21 10:06:06;;;;;;;;;92.00;70.67;;;;;3.76;100.00;99358.97;6282805;20;3646194;-51
2021/11/21 10:08:49;;;;;;;;;103.00;85.67;;;;;3.25;100.00;99353.81;6315908;20;3671084;-53
2021/11/21 10:11:19;;;;;;;;;100.00;72.33;;;;;3.55;100.00;99358.88;6284358;20;3680662;-53
2021/11/21 10:13:53;;;;;;;;;78.67;59.33;;;;;3.33;100.00;99352.66;6286533;20;3639788;-52
2021/11/21 10:16:30;;;;;;;;;93.00;67.67;;;;;3.39;100.00;99360.38;6316679;20;3645020;-55
2021/11/21 10:19:10;;;;;;;;;80.67;59.00;;;;;3.44;100.00;99351.31;6317499;20;3642047;-60
2021/11/21 10:21:51;;;;;;;;;85.33;63.00;;;;;3.42;100.00;99344.34;6284138;20;3646119;-53
2021/11/21 10:24:28;;;;;;;;;193.50;156.00;;;;;3.56;100.00;99350.00;6310284;20;1951323;-52
2021/11/21 10:27:11;;;;;;;;;80.00;60.33;;;;;3.47;100.00;99342.38;6280102;20;3633558;-51
2021/11/21 10:29:51;;;;;;;;;129.50;106.50;;;;;3.83;100.00;99337.44;6315614;20;4490796;-50
2021/11/21 10:32:31;;;;;;;;;79.67;57.33;;;;;3.44;100.00;99337.19;6282247;20;3648229;-51
2021/11/21 10:35:16;;;;;;;;;77.67;58.67;;;;;3.87;100.00;99340.81;6314326;20;3639923;-51
2021/11/21 10:37:46;;;;;;;;;68.33;52.67;;;;;3.45;100.00;99320.34;6313417;20;3633589;-48
2021/11/21 10:40:19;;;;;;;;;73.67;53.00;;;;;3.53;100.00;99328.91;6315670;20;3633585;-50
2021/11/21 10:42:52;;;;;;;;;87.67;67.00;;;;;3.59;100.00;99327.78;6315628;20;3637743;-51
2021/11/21 10:45:29;;;;;;;;;70.67;55.33;;;;;3.80;100.00;99316.31;6319634;20;3616903;-50
2021/11/21 10:48:00;;;;;;;;;84.00;62.33;;;;;4.02;100.00;99321.63;6286039;20;3639795;-50
2021/11/21 10:50:38;;;;;;;;;75.67;58.67;;;;;3.73;100.00;99309.50;6313685;20;3639152;-52
2021/11/21 10:53:12;;;;;;;;;90.67;67.33;;;;;3.94;100.00;99310.44;6312964;20;3656645;-45
2021/11/21 10:55:42;;;;;;;;;70.00;53.67;;;;;4.28;100.00;99296.63;6315770;20;3642916;-52
2021/11/21 10:58:17;;;;;;;;;85.67;61.00;;;;;3.67;100.00;99297.34;6316795;20;3642957;-52
2021/11/21 11:00:59;;;;;;;;;71.67;50.00;;;;;4.15;100.00;99295.41;6313352;20;3641943;-53
2021/11/21 11:03:29;;;;;;;;;77.33;54.67;;;;;3.99;100.00;99283.69;6313593;20;3634723;-53
2021/11/21 11:06:03;;;;;;;;;115.00;85.75;;;;;3.98;100.00;99293.47;6316043;20;4455419;-52
2021/11/21 11:08:32;;;;;;;;;71.67;56.67;;;;;3.85;100.00;99287.78;6312793;20;3629761;-51
2021/11/21 11:11:02;;;;;;;;;74.00;57.67;;;;;4.14;100.00;99289.25;6314407;20;3628499;-48
2021/11/21 11:13:32;;;;;;;;;71.33;55.67;;;;;4.13;100.00;99290.19;6315707;20;3621029;-51
2021/11/21 11:16:01;;;;;;;;;73.33;56.67;;;;;4.12;100.00;99291.09;6317402;20;3633532;-53